createdAt,value
2017-01-05T00:00:07.957Z,57.35
2017-01-05T00:01:19.274Z,57.45
2017-01-05T00:02:30.627Z,57.54
2017-01-05T00:03:41.564Z,57.54
2017-01-05T00:04:52.910Z,57.54
2017-01-05T00:06:03.375Z,57.64
2017-01-05T00:07:14.692Z,57.35
2017-01-05T00:08:26.009Z,57.35
2017-01-05T00:09:37.378Z,57.64
2017-01-05T00:10:48.699Z,57.35
2017-01-05T00:11:59.588Z,57.54
2017-01-05T00:13:10.910Z,57.07
2017-01-05T00:14:22.239Z,57.35
2017-01-05T00:15:33.608Z,57.26
2017-01-05T00:16:44.926Z,56.87
2017-01-05T00:17:55.391Z,57.64
2017-01-05T00:19:06.704Z,57.35
2017-01-05T00:20:17.169Z,57.54
2017-01-05T00:21:28.534Z,57.35
2017-01-05T00:22:39.423Z,56.97
2017-01-05T00:23:50.740Z,57.45
2017-01-05T00:25:02.057Z,57.45
2017-01-05T00:26:13.415Z,57.45
2017-01-05T00:27:24.792Z,57.45
2017-01-05T00:28:36.109Z,56.78
2017-01-05T00:29:47.426Z,57.45
2017-01-05T00:30:58.319Z,56.87
2017-01-05T00:32:09.636Z,57.51
2017-01-05T00:33:21.002Z,57.64
2017-01-05T00:34:32.323Z,57.64
2017-01-05T00:35:43.220Z,57.35
2017-01-05T00:36:54.533Z,57.54
2017-01-05T00:38:05.854Z,57.45
2017-01-05T00:39:17.231Z,57.45
2017-01-05T00:40:28.129Z,57.51
2017-01-05T00:41:39.449Z,57.35
2017-01-05T00:42:50.771Z,57.51
2017-01-05T00:44:01.664Z,57.54
2017-01-05T00:45:13.033Z,57.45
2017-01-05T00:46:23.926Z,57.35
2017-01-05T00:47:34.848Z,57.32
2017-01-05T00:48:46.173Z,57.35
2017-01-05T00:49:57.486Z,57.42
2017-01-05T00:51:08.431Z,57.35
2017-01-05T00:52:19.760Z,57.45
2017-01-05T00:53:31.085Z,57.35
2017-01-05T00:54:41.974Z,57.54
2017-01-05T00:55:52.435Z,57.45
2017-01-05T00:57:03.809Z,57.54
2017-01-05T00:58:15.134Z,57.45
2017-01-05T00:59:26.471Z,57.45
2017-01-05T01:00:37.784Z,57.07
2017-01-05T01:01:48.685Z,57.64
2017-01-05T01:02:59.194Z,57.45
2017-01-05T01:04:10.091Z,57.45
2017-01-05T01:05:21.416Z,57.54
2017-01-05T01:06:32.306Z,57.54
2017-01-05T01:07:43.203Z,57.64
2017-01-05T01:08:54.144Z,57.64
2017-01-05T01:10:05.037Z,56.75
2017-01-05T01:11:16.358Z,57.51
2017-01-05T01:12:27.679Z,57.35
2017-01-05T01:13:39.004Z,57.45
2017-01-05T01:14:50.369Z,57.45
2017-01-05T01:16:01.263Z,57.54
2017-01-05T01:17:12.588Z,57.35
2017-01-05T01:18:23.905Z,57.54
2017-01-05T01:19:34.374Z,57.35
2017-01-05T01:20:45.743Z,57.45
2017-01-05T01:21:57.065Z,57.45
2017-01-05T01:23:07.977Z,57.54
2017-01-05T01:24:18.878Z,57.45
2017-01-05T01:25:30.199Z,57.26
2017-01-05T01:26:41.144Z,57.54
2017-01-05T01:27:52.465Z,57.45
2017-01-05T01:29:03.799Z,57.45
2017-01-05T01:30:15.144Z,57.35
2017-01-05T01:31:26.456Z,57.51
2017-01-05T01:32:37.413Z,57.42
2017-01-05T01:33:48.731Z,56.97
2017-01-05T01:35:00.048Z,57.35
2017-01-05T01:36:10.942Z,57.26
2017-01-05T01:37:22.263Z,57.54
2017-01-05T01:38:33.204Z,57.45
2017-01-05T01:39:44.529Z,57.45
2017-01-05T01:40:55.418Z,57.54
2017-01-05T01:42:06.315Z,57.51
2017-01-05T01:43:17.636Z,57.51
2017-01-05T01:44:28.573Z,56.85
2017-01-05T01:45:39.907Z,57.54
2017-01-05T01:46:50.804Z,57.45
2017-01-05T01:48:01.697Z,57.45
2017-01-05T01:49:13.024Z,57.64
2017-01-05T01:50:24.396Z,57.45
2017-01-05T01:51:35.324Z,57.07
2017-01-05T01:52:46.677Z,57.16
2017-01-05T01:53:57.999Z,57.13
2017-01-05T01:55:09.320Z,57.6
2017-01-05T01:56:20.261Z,57.23
2017-01-05T01:57:30.722Z,57.42
2017-01-05T01:58:41.611Z,57.54
2017-01-05T01:59:52.937Z,57.73
2017-01-05T02:01:03.830Z,57.42
2017-01-05T02:02:15.271Z,56.94
2017-01-05T02:03:26.592Z,57.42
2017-01-05T02:04:37.522Z,57.6
2017-01-05T02:05:48.842Z,56.94
2017-01-05T02:07:00.164Z,57.45
2017-01-05T02:08:11.533Z,56.87
2017-01-05T02:09:22.850Z,57.51
2017-01-05T02:10:33.744Z,57.45
2017-01-05T02:11:44.665Z,57.42
2017-01-05T02:12:55.989Z,57.42
2017-01-05T02:14:07.363Z,57.6
2017-01-05T02:15:18.680Z,57.64
2017-01-05T02:16:30.033Z,57.26
2017-01-05T02:17:40.930Z,57.54
2017-01-05T02:18:52.248Z,57.42
2017-01-05T02:20:03.617Z,57.35
2017-01-05T02:21:14.518Z,57.51
2017-01-05T02:22:25.839Z,57.51
2017-01-05T02:23:37.165Z,57.23
2017-01-05T02:24:47.634Z,57.32
2017-01-05T02:25:59.011Z,57.54
2017-01-05T02:27:10.333Z,57.45
2017-01-05T02:28:21.237Z,57.32
2017-01-05T02:29:32.559Z,57.51
2017-01-05T02:30:43.877Z,57.32
2017-01-05T02:31:54.825Z,57.51
2017-01-05T02:33:06.150Z,57.32
2017-01-05T02:34:17.471Z,57.32
2017-01-05T02:35:28.369Z,57.42
2017-01-05T02:36:39.694Z,57.45
2017-01-05T02:37:50.626Z,57.45
2017-01-05T02:39:01.948Z,57.6
2017-01-05T02:40:12.833Z,57.42
2017-01-05T02:41:23.303Z,57.42
2017-01-05T02:42:34.627Z,57.45
2017-01-05T02:43:45.567Z,57.42
2017-01-05T02:44:56.882Z,57.42
2017-01-05T02:46:08.211Z,57.42
2017-01-05T02:47:19.108Z,57.42
2017-01-05T02:48:30.426Z,57.51
2017-01-05T02:49:41.819Z,57.42
2017-01-05T02:50:53.144Z,57.42
2017-01-05T02:52:04.033Z,57.42
2017-01-05T02:53:14.926Z,57.42
2017-01-05T02:54:26.239Z,57.32
2017-01-05T02:55:37.189Z,57.32
2017-01-05T02:56:48.082Z,57.32
2017-01-05T02:57:58.987Z,57.42
2017-01-05T02:59:10.301Z,57.51
2017-01-05T03:00:21.205Z,57.6
2017-01-05T03:01:32.155Z,57.51
2017-01-05T03:02:43.484Z,57.51
2017-01-05T03:03:54.373Z,57.42
2017-01-05T03:05:05.275Z,57.51
2017-01-05T03:06:16.596Z,56.65
2017-01-05T03:07:27.537Z,57.32
2017-01-05T03:08:38.858Z,57.51
2017-01-05T03:09:50.175Z,57.51
2017-01-05T03:11:01.503Z,57.6
2017-01-05T03:12:12.830Z,57.51
2017-01-05T03:13:23.763Z,57.32
2017-01-05T03:14:34.228Z,57.51
2017-01-05T03:15:45.549Z,57.32
2017-01-05T03:16:56.878Z,57.51
2017-01-05T03:18:07.771Z,57.51
2017-01-05T03:19:19.137Z,57.51
2017-01-05T03:20:30.038Z,57.42
2017-01-05T03:21:40.923Z,57.51
2017-01-05T03:22:51.393Z,57.51
2017-01-05T03:24:01.858Z,57.51
2017-01-05T03:25:13.351Z,57.51
2017-01-05T03:26:24.676Z,57.32
2017-01-05T03:27:35.990Z,57.51
2017-01-05T03:28:47.303Z,57.54
2017-01-05T03:29:57.772Z,57.51
2017-01-05T03:31:08.705Z,57.32
2017-01-05T03:32:20.026Z,57.32
2017-01-05T03:33:31.348Z,57.32
2017-01-05T03:34:42.237Z,57.51
2017-01-05T03:35:53.554Z,57.51
2017-01-05T03:37:04.495Z,57.42
2017-01-05T03:38:15.820Z,57.6
2017-01-05T03:39:27.146Z,57.51
2017-01-05T03:40:38.071Z,57.42
2017-01-05T03:41:49.388Z,57.51
2017-01-05T03:43:00.333Z,57.42
2017-01-05T03:44:11.251Z,57.23
2017-01-05T03:45:22.575Z,57.32
2017-01-05T03:46:33.905Z,57.04
2017-01-05T03:47:45.234Z,57.04
2017-01-05T03:48:56.183Z,57.13
2017-01-05T03:50:07.505Z,57.32
2017-01-05T03:51:18.830Z,57.54
2017-01-05T03:52:29.719Z,57.42
2017-01-05T03:53:40.604Z,57.51
2017-01-05T03:54:51.977Z,57.13
2017-01-05T03:56:03.306Z,57.32
2017-01-05T03:57:14.628Z,57.6
2017-01-05T03:58:25.529Z,57.42
2017-01-05T03:59:36.430Z,57.32
2017-01-05T04:00:47.803Z,57.42
2017-01-05T04:01:58.701Z,57.51
2017-01-05T04:03:10.026Z,57.23
2017-01-05T04:04:21.351Z,56.94
2017-01-05T04:05:32.675Z,57.04
2017-01-05T04:06:43.197Z,57.04
2017-01-05T04:07:54.527Z,56.94
2017-01-05T04:09:05.848Z,57.04
2017-01-05T04:10:17.177Z,57.23
2017-01-05T04:11:28.499Z,56.94
2017-01-05T04:12:39.871Z,57.51
2017-01-05T04:13:51.185Z,57.42
2017-01-05T04:15:02.074Z,57.51
2017-01-05T04:16:12.547Z,57.6
2017-01-05T04:17:23.445Z,57.32
2017-01-05T04:18:34.825Z,57.6
2017-01-05T04:19:46.147Z,57.6
2017-01-05T04:20:56.600Z,57.42
2017-01-05T04:22:07.497Z,57.32
2017-01-05T04:23:18.395Z,57.6
2017-01-05T04:24:29.336Z,57.6
2017-01-05T04:25:40.241Z,57.32
2017-01-05T04:26:51.142Z,57.51
2017-01-05T04:28:02.459Z,57.13
2017-01-05T04:29:13.352Z,57.42
2017-01-05T04:30:24.821Z,57.23
2017-01-05T04:31:35.710Z,57.13
2017-01-05T04:32:47.036Z,57.23
2017-01-05T04:33:58.353Z,57.42
2017-01-05T04:35:09.254Z,57.23
2017-01-05T04:36:20.623Z,57.23
2017-01-05T04:37:31.941Z,57.51
2017-01-05T04:38:42.834Z,57.42
2017-01-05T04:39:54.159Z,57.7
2017-01-05T04:41:04.628Z,57.7
2017-01-05T04:42:15.581Z,57.7
2017-01-05T04:43:26.915Z,57.8
2017-01-05T04:44:37.804Z,58.08
2017-01-05T04:45:49.117Z,57.8
2017-01-05T04:47:00.426Z,57.99
2017-01-05T04:48:11.359Z,57.7
2017-01-05T04:49:22.681Z,58.08
2017-01-05T04:50:33.574Z,57.89
2017-01-05T04:51:44.471Z,57.89
2017-01-05T04:52:55.812Z,58.08
2017-01-05T04:54:07.177Z,58.08
2017-01-05T04:55:18.499Z,57.7
2017-01-05T04:56:29.816Z,57.8
2017-01-05T04:57:40.709Z,57.99
2017-01-05T04:58:52.026Z,57.89
2017-01-05T05:00:02.539Z,57.99
2017-01-05T05:01:13.860Z,58.18
2017-01-05T05:02:25.178Z,58.18
2017-01-05T05:03:36.531Z,57.99
2017-01-05T05:04:47.426Z,57.99
2017-01-05T05:05:58.377Z,58.08
2017-01-05T05:07:09.702Z,58.18
2017-01-05T05:08:20.595Z,57.99
2017-01-05T05:09:31.917Z,58.08
2017-01-05T05:10:42.814Z,57.99
2017-01-05T05:11:53.759Z,57.99
2017-01-05T05:13:05.088Z,57.89
2017-01-05T05:14:16.405Z,58.08
2017-01-05T05:15:27.303Z,57.99
2017-01-05T05:16:38.624Z,57.99
2017-01-05T05:17:49.997Z,58.47
2017-01-05T05:19:00.895Z,58.37
2017-01-05T05:20:12.211Z,58.47
2017-01-05T05:21:23.109Z,58.47
2017-01-05T05:22:33.998Z,58.47
2017-01-05T05:23:44.939Z,58.28
2017-01-05T05:24:55.392Z,58.08
2017-01-05T05:26:06.729Z,58.37
2017-01-05T05:27:17.630Z,58.47
2017-01-05T05:28:28.531Z,58.47
2017-01-05T05:29:39.896Z,58.37
2017-01-05T05:30:51.214Z,57.99
2017-01-05T05:32:02.103Z,58.08
2017-01-05T05:33:13.008Z,57.99
2017-01-05T05:34:23.898Z,58.18
2017-01-05T05:35:35.263Z,58.28
2017-01-05T05:36:46.164Z,58.28
2017-01-05T05:37:57.509Z,58.28
2017-01-05T05:39:08.398Z,58.18
2017-01-05T05:40:19.728Z,58.18
2017-01-05T05:41:30.673Z,58.18
2017-01-05T05:42:41.998Z,57.99
2017-01-05T05:43:53.315Z,58.18
2017-01-05T05:45:04.632Z,58.18
2017-01-05T05:46:15.962Z,57.99
2017-01-05T05:47:27.335Z,57.99
2017-01-05T05:48:38.684Z,57.99
2017-01-05T05:49:49.569Z,58.56
2017-01-05T05:51:00.894Z,58.47
2017-01-05T05:52:11.790Z,58.47
2017-01-05T05:53:22.731Z,58.37
2017-01-05T05:54:34.061Z,58.56
2017-01-05T05:55:44.955Z,58.08
2017-01-05T05:56:55.840Z,58.56
2017-01-05T05:58:07.167Z,58.47
2017-01-05T05:59:18.114Z,58.37
2017-01-05T06:00:29.452Z,58.56
2017-01-05T06:01:40.337Z,58.56
2017-01-05T06:02:51.238Z,58.56
2017-01-05T06:04:02.139Z,58.65
2017-01-05T06:05:13.512Z,58.65
2017-01-05T06:06:23.978Z,58.56
2017-01-05T06:07:34.903Z,58.65
2017-01-05T06:08:45.808Z,58.37
2017-01-05T06:09:57.133Z,58.37
2017-01-05T06:11:08.498Z,58.47
2017-01-05T06:12:19.819Z,58.56
2017-01-05T06:13:30.724Z,58.56
2017-01-05T06:14:42.038Z,58.56
2017-01-05T06:15:52.498Z,58.28
2017-01-05T06:17:03.867Z,58.28
2017-01-05T06:18:15.192Z,58.47
2017-01-05T06:19:26.508Z,58.28
2017-01-05T06:20:37.830Z,58.28
2017-01-05T06:21:49.143Z,58.37
2017-01-05T06:23:00.104Z,58.28
2017-01-05T06:24:11.425Z,58.28
2017-01-05T06:25:22.318Z,58.18
2017-01-05T06:26:33.643Z,58.18
2017-01-05T06:27:44.968Z,58.28
2017-01-05T06:28:55.909Z,58.47
2017-01-05T06:30:07.226Z,58.28
2017-01-05T06:31:18.123Z,58.56
2017-01-05T06:32:29.004Z,58.56
2017-01-05T06:33:39.897Z,58.47
2017-01-05T06:34:51.322Z,58.44
2017-01-05T06:36:02.644Z,58.25
2017-01-05T06:37:13.973Z,58.08
2017-01-05T06:38:25.323Z,58.56
2017-01-05T06:39:36.207Z,58.28
2017-01-05T06:40:47.154Z,58.44
2017-01-05T06:41:58.469Z,58.28
2017-01-05T06:43:09.358Z,58.06
2017-01-05T06:44:20.704Z,58.25
2017-01-05T06:45:32.029Z,57.96
2017-01-05T06:46:42.974Z,58.06
2017-01-05T06:47:53.891Z,58.53
2017-01-05T06:49:05.216Z,58.53
2017-01-05T06:50:16.541Z,58.53
2017-01-05T06:51:27.439Z,58.53
2017-01-05T06:52:38.821Z,58.53
2017-01-05T06:53:49.713Z,58.81
2017-01-05T06:55:00.610Z,58.37
2017-01-05T06:56:11.934Z,58.62
2017-01-05T06:57:23.260Z,58.72
2017-01-05T06:58:34.201Z,58.53
2017-01-05T06:59:45.518Z,58.44
2017-01-05T07:00:56.835Z,58.56
2017-01-05T07:02:07.732Z,58.62
2017-01-05T07:03:19.054Z,58.56
2017-01-05T07:04:29.999Z,58.34
2017-01-05T07:05:40.884Z,58.65
2017-01-05T07:06:51.773Z,58.53
2017-01-05T07:08:03.091Z,58.53
2017-01-05T07:09:14.416Z,58.62
2017-01-05T07:10:25.981Z,58.44
2017-01-05T07:11:37.303Z,58.53
2017-01-05T07:12:48.623Z,58.37
2017-01-05T07:13:59.945Z,58.62
2017-01-05T07:15:11.266Z,58.62
2017-01-05T07:16:22.663Z,58.53
2017-01-05T07:17:33.564Z,58.53
2017-01-05T07:18:44.889Z,58.62
2017-01-05T07:19:55.783Z,58.56
2017-01-05T07:21:07.108Z,58.72
2017-01-05T07:22:18.585Z,58.53
2017-01-05T07:23:29.478Z,58.75
2017-01-05T07:24:40.796Z,58.53
2017-01-05T07:25:52.117Z,58.81
2017-01-05T07:27:03.014Z,58.72
2017-01-05T07:28:14.395Z,58.06
2017-01-05T07:29:25.712Z,58.53
2017-01-05T07:30:37.038Z,58.53
2017-01-05T07:31:47.938Z,58.56
2017-01-05T07:32:59.264Z,58.34
2017-01-05T07:34:10.633Z,58.62
2017-01-05T07:35:21.530Z,58.34
2017-01-05T07:36:32.856Z,58.53
2017-01-05T07:37:43.781Z,58.62
2017-01-05T07:38:55.098Z,58.53
2017-01-05T07:40:06.042Z,58.53
2017-01-05T07:41:16.941Z,58.56
2017-01-05T07:42:28.289Z,58.53
2017-01-05T07:43:39.603Z,58.34
2017-01-05T07:44:50.500Z,58.53
2017-01-05T07:46:01.866Z,58.72
2017-01-05T07:47:12.758Z,58.62
2017-01-05T07:48:23.655Z,58.72
2017-01-05T07:49:34.977Z,58.53
2017-01-05T07:50:46.310Z,58.81
2017-01-05T07:51:57.264Z,58.72
2017-01-05T07:53:08.582Z,58.72
2017-01-05T07:54:19.906Z,58.53
2017-01-05T07:55:31.227Z,58.15
2017-01-05T07:56:42.577Z,58.47
2017-01-05T07:57:53.946Z,58.06
2017-01-05T07:59:05.259Z,57.99
2017-01-05T08:00:16.580Z,58.08
2017-01-05T08:01:27.894Z,58.44
2017-01-05T08:02:38.359Z,57.99
2017-01-05T08:03:49.723Z,58.25
2017-01-05T08:05:00.617Z,58.53
2017-01-05T08:06:11.934Z,58.06
2017-01-05T08:07:23.264Z,58.56
2017-01-05T08:08:34.617Z,58.28
2017-01-05T08:09:45.559Z,58.44
2017-01-05T08:10:56.452Z,58.25
2017-01-05T08:12:07.773Z,58.34
2017-01-05T08:13:18.665Z,58.06
2017-01-05T08:14:30.019Z,58.18
2017-01-05T08:15:40.964Z,58.28
2017-01-05T08:16:52.281Z,58.47
2017-01-05T08:18:02.755Z,58.18
2017-01-05T08:19:13.660Z,58.37
2017-01-05T08:20:24.981Z,58.18
2017-01-05T08:21:36.027Z,58.28
2017-01-05T08:22:47.344Z,58.25
2017-01-05T08:23:58.245Z,58.18
2017-01-05T08:25:09.138Z,58.37
2017-01-05T08:26:20.456Z,58.28
2017-01-05T08:27:31.445Z,58.47
2017-01-05T08:28:42.762Z,58.56
2017-01-05T08:29:54.083Z,58.56
2017-01-05T08:31:05.445Z,58.65
2017-01-05T08:32:16.766Z,58.37
2017-01-05T08:33:28.135Z,58.47
2017-01-05T08:34:39.464Z,58.47
2017-01-05T08:35:50.787Z,58.08
2017-01-05T08:37:01.683Z,57.8
2017-01-05T08:38:13.000Z,58.08
2017-01-05T08:39:24.373Z,57.99
2017-01-05T08:40:35.699Z,58.18
2017-01-05T08:41:47.020Z,58.28
2017-01-05T08:42:57.913Z,57.99
2017-01-05T08:44:08.814Z,58.08
2017-01-05T08:45:20.199Z,58.37
2017-01-05T08:46:31.120Z,58.08
2017-01-05T08:47:42.442Z,58.47
2017-01-05T08:48:53.767Z,58.28
2017-01-05T08:50:04.668Z,58.47
2017-01-05T08:51:16.034Z,58.47
2017-01-05T08:52:27.359Z,58.47
2017-01-05T08:53:38.252Z,58.08
2017-01-05T08:54:49.569Z,58.08
2017-01-05T08:56:00.038Z,57.8
2017-01-05T08:57:11.416Z,58.18
2017-01-05T08:58:22.729Z,57.89
2017-01-05T08:59:34.050Z,58.18
2017-01-05T09:00:44.947Z,57.7
2017-01-05T09:01:55.836Z,57.13
2017-01-05T09:03:07.210Z,57.32
2017-01-05T09:04:18.534Z,57.6
2017-01-05T09:05:29.868Z,57.7
2017-01-05T09:06:40.765Z,57.13
2017-01-05T09:07:52.087Z,57.04
2017-01-05T09:09:03.024Z,57.51
2017-01-05T09:10:14.349Z,57.6
2017-01-05T09:11:25.667Z,57.51
2017-01-05T09:12:36.559Z,57.51
2017-01-05T09:13:47.873Z,57.42
2017-01-05T09:14:59.014Z,57.6
2017-01-05T09:16:09.947Z,57.51
2017-01-05T09:17:21.292Z,57.23
2017-01-05T09:18:32.609Z,57.13
2017-01-05T09:19:43.931Z,57.23
2017-01-05T09:20:55.296Z,57.04
2017-01-05T09:22:06.617Z,56.65
2017-01-05T09:23:17.510Z,56.56
2017-01-05T09:24:28.407Z,56.75
2017-01-05T09:25:39.297Z,56.94
2017-01-05T09:26:50.666Z,56.75
2017-01-05T09:28:01.995Z,56.87
2017-01-05T09:29:12.901Z,56.65
2017-01-05T09:30:24.218Z,56.75
2017-01-05T09:31:35.119Z,56.75
2017-01-05T09:32:46.488Z,56.87
2017-01-05T09:33:57.381Z,56.85
2017-01-05T09:35:08.699Z,56.75
2017-01-05T09:36:20.019Z,56.97
2017-01-05T09:37:30.908Z,56.78
2017-01-05T09:38:42.278Z,56.85
2017-01-05T09:39:53.608Z,56.78
2017-01-05T09:41:04.504Z,56.78
2017-01-05T09:42:15.829Z,56.3
2017-01-05T09:43:27.147Z,56.78
2017-01-05T09:44:38.100Z,56.4
2017-01-05T09:45:48.993Z,56.3
2017-01-05T09:46:59.886Z,56.3
2017-01-05T09:48:11.215Z,56.4
2017-01-05T09:49:22.533Z,56.4
2017-01-05T09:50:33.474Z,56.68
2017-01-05T09:51:44.791Z,56.49
2017-01-05T09:52:56.117Z,56.49
2017-01-05T09:54:07.013Z,56.68
2017-01-05T09:55:18.351Z,56.78
2017-01-05T09:56:29.712Z,56.59
2017-01-05T09:57:40.605Z,56.3
2017-01-05T09:58:51.923Z,56.02
2017-01-05T10:00:02.824Z,55.92
2017-01-05T10:01:13.721Z,55.92
2017-01-05T10:02:25.098Z,56.11
2017-01-05T10:03:36.419Z,56.02
2017-01-05T10:04:47.316Z,56.4
2017-01-05T10:05:58.638Z,56.3
2017-01-05T10:07:09.955Z,56.3
2017-01-05T10:08:21.332Z,56.21
2017-01-05T10:09:32.221Z,56.02
2017-01-05T10:10:43.114Z,56.4
2017-01-05T10:11:54.460Z,56.49
2017-01-05T10:13:05.777Z,55.83
2017-01-05T10:14:16.718Z,55.92
2017-01-05T10:15:28.032Z,55.83
2017-01-05T10:16:39.353Z,55.63
2017-01-05T10:17:50.266Z,55.73
2017-01-05T10:19:01.151Z,55.35
2017-01-05T10:20:12.520Z,55.35
2017-01-05T10:21:23.417Z,55.35
2017-01-05T10:22:34.735Z,55.54
2017-01-05T10:23:45.208Z,55.35
2017-01-05T10:24:56.525Z,55.44
2017-01-05T10:26:07.898Z,55.35
2017-01-05T10:27:19.232Z,55.44
2017-01-05T10:28:30.550Z,55.54
2017-01-05T10:29:41.434Z,55.44
2017-01-05T10:30:52.750Z,55.35
2017-01-05T10:32:04.132Z,55.35
2017-01-05T10:33:15.449Z,55.35
2017-01-05T10:34:26.346Z,55.83
2017-01-05T10:35:37.248Z,55.38
2017-01-05T10:36:48.577Z,55.44
2017-01-05T10:37:59.518Z,55.63
2017-01-05T10:39:10.412Z,55.44
2017-01-05T10:40:21.308Z,55.44
2017-01-05T10:41:32.625Z,55.44
2017-01-05T10:42:43.511Z,55.54
2017-01-05T10:43:54.919Z,55.63
2017-01-05T10:45:05.825Z,55.57
2017-01-05T10:46:16.722Z,55.63
2017-01-05T10:47:28.047Z,55.73
2017-01-05T10:48:38.940Z,55.57
2017-01-05T10:49:49.461Z,55.19
2017-01-05T10:51:00.779Z,55.38
2017-01-05T10:52:11.679Z,55.19
2017-01-05T10:53:22.577Z,55.16
2017-01-05T10:54:33.906Z,54.9
2017-01-05T10:55:44.855Z,55.16
2017-01-05T10:56:55.757Z,55.19
2017-01-05T10:58:07.078Z,55.09
2017-01-05T10:59:18.399Z,55
2017-01-05T11:00:29.296Z,55.09
2017-01-05T11:01:40.385Z,54.9
2017-01-05T11:02:51.707Z,54.97
2017-01-05T11:04:03.024Z,55.35
2017-01-05T11:05:13.916Z,55.16
2017-01-05T11:06:24.818Z,55.26
2017-01-05T11:07:36.199Z,55.16
2017-01-05T11:08:47.520Z,54.97
2017-01-05T11:09:58.850Z,55.16
2017-01-05T11:11:09.742Z,55.07
2017-01-05T11:12:21.060Z,55.07
2017-01-05T11:13:32.009Z,55.16
2017-01-05T11:14:43.338Z,55.57
2017-01-05T11:15:54.227Z,55.19
2017-01-05T11:17:05.129Z,55.47
2017-01-05T11:18:16.454Z,54.61
2017-01-05T11:19:27.823Z,54.71
2017-01-05T11:20:39.172Z,54.43
2017-01-05T11:21:49.637Z,54.61
2017-01-05T11:23:00.552Z,54.8
2017-01-05T11:24:11.878Z,54.52
2017-01-05T11:25:23.244Z,54.52
2017-01-05T11:26:34.146Z,54.8
2017-01-05T11:27:45.472Z,54.61
2017-01-05T11:28:56.364Z,54.9
2017-01-05T11:30:07.265Z,54.8
2017-01-05T11:31:18.635Z,55
2017-01-05T11:32:29.537Z,54.52
2017-01-05T11:33:40.433Z,54.33
2017-01-05T11:34:51.766Z,54.61
2017-01-05T11:36:03.087Z,54.43
2017-01-05T11:37:14.452Z,53.95
2017-01-05T11:38:25.770Z,54.04
2017-01-05T11:39:37.094Z,53.85
2017-01-05T11:40:47.992Z,54.04
2017-01-05T11:41:59.317Z,53.95
2017-01-05T11:43:09.839Z,53.78
2017-01-05T11:44:20.736Z,53.95
2017-01-05T11:45:31.633Z,53.97
2017-01-05T11:46:42.522Z,53.88
2017-01-05T11:47:53.851Z,53.88
2017-01-05T11:49:05.216Z,54.17
2017-01-05T11:50:15.681Z,54.17
2017-01-05T11:51:26.994Z,54.17
2017-01-05T11:52:38.315Z,54.33
2017-01-05T11:53:49.641Z,54.14
2017-01-05T11:55:00.610Z,53.95
2017-01-05T11:56:11.503Z,54.14
2017-01-05T11:57:22.833Z,53.76
2017-01-05T11:58:34.153Z,53.95
2017-01-05T11:59:45.483Z,53.76
2017-01-05T12:00:56.860Z,54.14
2017-01-05T12:02:08.185Z,53.85
2017-01-05T12:03:19.084Z,54.04
2017-01-05T12:04:30.407Z,54.04
2017-01-05T12:05:41.721Z,54.17
2017-01-05T12:06:53.097Z,53.97
2017-01-05T12:08:04.415Z,53.88
2017-01-05T12:09:15.308Z,53.69
2017-01-05T12:10:26.629Z,53.88
2017-01-05T12:11:37.946Z,53.59
2017-01-05T12:12:48.888Z,53.21
2017-01-05T12:14:00.205Z,53.41
2017-01-05T12:15:10.710Z,53.21
2017-01-05T12:16:22.031Z,52.92
2017-01-05T12:17:32.924Z,52.95
2017-01-05T12:18:44.293Z,52.76
2017-01-05T12:19:55.190Z,53.14
2017-01-05T12:21:06.512Z,53.05
2017-01-05T12:22:17.433Z,52.95
2017-01-05T12:23:28.746Z,53.21
2017-01-05T12:24:40.127Z,53.43
2017-01-05T12:25:51.024Z,53.21
2017-01-05T12:27:02.337Z,53.21
2017-01-05T12:28:13.663Z,53.21
2017-01-05T12:29:24.980Z,52.92
2017-01-05T12:30:36.349Z,52.95
2017-01-05T12:31:47.246Z,52.92
2017-01-05T12:32:57.688Z,52.83
2017-01-05T12:34:09.012Z,52.73
2017-01-05T12:35:19.902Z,52.55
2017-01-05T12:36:31.272Z,52.76
2017-01-05T12:37:42.164Z,52.38
2017-01-05T12:38:53.062Z,52.28
2017-01-05T12:40:04.386Z,53.05
2017-01-05T12:41:15.716Z,53.14
2017-01-05T12:42:26.661Z,52.76
2017-01-05T12:43:37.978Z,52.86
2017-01-05T12:44:49.295Z,52.76
2017-01-05T12:46:00.204Z,53.02
2017-01-05T12:47:11.093Z,52.95
2017-01-05T12:48:22.035Z,52.83
2017-01-05T12:49:33.360Z,52.76
2017-01-05T12:50:44.685Z,52.83
2017-01-05T12:51:55.574Z,52.55
2017-01-05T12:53:06.475Z,52.83
2017-01-05T12:54:17.848Z,52.73
2017-01-05T12:55:28.742Z,52.55
2017-01-05T12:56:40.063Z,52.92
2017-01-05T12:57:51.376Z,52.73
2017-01-05T12:59:01.837Z,52.83
2017-01-05T13:00:12.811Z,52.92
2017-01-05T13:01:24.132Z,53.12
2017-01-05T13:02:35.021Z,53.02
2017-01-05T13:03:45.902Z,53.02
2017-01-05T13:04:56.799Z,53.12
2017-01-05T13:06:08.164Z,52.45
2017-01-05T13:07:18.625Z,52.07
2017-01-05T13:08:29.518Z,52.16
2017-01-05T13:09:40.413Z,52.36
2017-01-05T13:10:51.729Z,52.36
2017-01-05T13:12:03.106Z,52.36
2017-01-05T13:13:13.999Z,52.16
2017-01-05T13:14:25.316Z,52.16
2017-01-05T13:15:36.645Z,52.16
2017-01-05T13:16:47.542Z,52.07
2017-01-05T13:17:58.915Z,52.26
2017-01-05T13:19:09.380Z,51.97
2017-01-05T13:20:20.257Z,52.45
2017-01-05T13:21:30.726Z,51.97
2017-01-05T13:22:41.615Z,52.07
2017-01-05T13:23:52.580Z,52.07
2017-01-05T13:25:03.469Z,52.26
2017-01-05T13:26:14.802Z,52.07
2017-01-05T13:27:25.692Z,52.26
2017-01-05T13:28:36.585Z,52.07
2017-01-05T13:29:48.170Z,52.07
2017-01-05T13:30:59.059Z,52.16
2017-01-05T13:32:09.952Z,52.36
2017-01-05T13:33:21.282Z,52.26
2017-01-05T13:34:32.174Z,52.16
2017-01-05T13:35:43.547Z,52.16
2017-01-05T13:36:54.437Z,52.36
2017-01-05T13:38:05.330Z,52.16
2017-01-05T13:39:15.359Z,52.07
2017-01-05T13:40:26.680Z,51.97
2017-01-05T13:41:38.049Z,52.45
2017-01-05T13:42:48.939Z,53.02
2017-01-05T13:43:59.399Z,53.12
2017-01-05T13:45:10.297Z,52.73
2017-01-05T13:46:21.622Z,53.02
2017-01-05T13:47:32.563Z,53.02
2017-01-05T13:48:43.464Z,52.73
2017-01-05T13:49:54.781Z,52.73
2017-01-05T13:51:06.111Z,52.64
2017-01-05T13:52:17.008Z,52.83
2017-01-05T13:53:28.381Z,52.73
2017-01-05T13:54:39.278Z,52.73
2017-01-05T13:55:50.175Z,52.71
2017-01-05T13:57:01.496Z,52.73
2017-01-05T13:58:12.825Z,52.73
2017-01-05T13:59:23.770Z,52.92
2017-01-05T14:00:35.092Z,52.9
2017-01-05T14:01:46.413Z,52.83
2017-01-05T14:02:57.309Z,52.83
2017-01-05T14:04:08.627Z,52.61
2017-01-05T14:05:19.568Z,52.92
2017-01-05T14:06:30.465Z,53.02
2017-01-05T14:07:41.354Z,53.09
2017-01-05T14:08:52.251Z,53.28
2017-01-05T14:10:03.137Z,53
2017-01-05T14:11:13.658Z,53.09
2017-01-05T14:12:24.980Z,53.19
2017-01-05T14:13:36.336Z,53
2017-01-05T14:14:47.657Z,53
2017-01-05T14:15:58.978Z,53.09
2017-01-05T14:17:09.928Z,53.19
2017-01-05T14:18:21.256Z,53.19
2017-01-05T14:19:32.598Z,53.38
2017-01-05T14:20:43.918Z,53.56
2017-01-05T14:21:54.811Z,53.09
2017-01-05T14:23:05.328Z,53.38
2017-01-05T14:24:16.234Z,53.28
2017-01-05T14:25:26.695Z,53.09
2017-01-05T14:26:38.032Z,53.47
2017-01-05T14:27:48.925Z,53.09
2017-01-05T14:28:59.870Z,53.09
2017-01-05T14:30:11.183Z,53.47
2017-01-05T14:31:22.081Z,53.66
2017-01-05T14:32:33.401Z,53.56
2017-01-05T14:33:44.291Z,53.66
2017-01-05T14:34:55.227Z,53.47
2017-01-05T14:36:05.697Z,53.85
2017-01-05T14:37:17.014Z,54.04
2017-01-05T14:38:28.327Z,53.76
2017-01-05T14:39:39.224Z,53.85
2017-01-05T14:40:50.593Z,53.95
2017-01-05T14:42:01.482Z,54.14
2017-01-05T14:43:11.959Z,54.14
2017-01-05T14:44:22.850Z,54.14
2017-01-05T14:45:33.746Z,53.85
2017-01-05T14:46:45.115Z,53.95
2017-01-05T14:47:56.432Z,53.85
2017-01-05T14:49:07.762Z,53.95
2017-01-05T14:50:19.075Z,53.95
2017-01-05T14:51:29.960Z,53.95
2017-01-05T14:52:40.901Z,54.24
2017-01-05T14:53:51.794Z,54.04
2017-01-05T14:55:03.120Z,54.8
2017-01-05T14:56:14.445Z,53.95
2017-01-05T14:57:25.334Z,53.95
2017-01-05T14:58:36.423Z,54.33
2017-01-05T14:59:47.744Z,54.14
2017-01-05T15:00:59.058Z,54.33
2017-01-05T15:02:10.376Z,54.59
2017-01-05T15:03:21.264Z,54.33
2017-01-05T15:04:32.221Z,54.39
2017-01-05T15:05:43.535Z,54.39
2017-01-05T15:06:54.864Z,54.49
2017-01-05T15:08:05.757Z,54.49
2017-01-05T15:09:17.079Z,54.68
2017-01-05T15:10:28.444Z,54.78
2017-01-05T15:11:39.341Z,54.68
2017-01-05T15:12:50.230Z,54.39
2017-01-05T15:14:01.127Z,54.49
2017-01-05T15:15:12.448Z,54.59
2017-01-05T15:16:23.833Z,54.97
2017-01-05T15:17:34.298Z,54.78